createdAt,value
2018-04-08T00:00:17.284Z,92.80
2018-04-08T00:02:44.747Z,93.40
2018-04-08T00:05:12.216Z,93.60
2018-04-08T00:07:39.680Z,95.10
2018-04-08T00:10:07.147Z,95.60
2018-04-08T00:12:34.616Z,96.50
2018-04-08T00:15:02.095Z,97.10
2018-04-08T00:17:29.571Z,98.20
2018-04-08T00:19:57.036Z,98.40
2018-04-08T00:22:24.512Z,99.00
2018-04-08T00:24:52.068Z,99.90
2018-04-08T00:27:19.636Z,99.90
2018-04-08T00:29:47.112Z,99.90
2018-04-08T00:32:14.675Z,99.90
2018-04-08T00:34:42.144Z,99.90
2018-04-08T00:37:09.625Z,99.90
2018-04-08T00:39:37.188Z,99.90
2018-04-08T00:42:04.667Z,99.90
2018-04-08T00:44:32.136Z,99.90
2018-04-08T00:46:59.608Z,99.90
2018-04-08T00:49:27.097Z,99.90
2018-04-08T00:51:55.328Z,99.90
2018-04-08T00:54:37.676Z,99.90
2018-04-08T00:57:05.140Z,99.90
2018-04-08T00:59:32.605Z,99.90
2018-04-08T01:02:00.080Z,99.90
2018-04-08T01:04:27.551Z,99.90
2018-04-08T01:06:55.016Z,99.90
2018-04-08T01:09:22.499Z,99.90
2018-04-08T01:11:49.961Z,99.90
2018-04-08T01:14:17.531Z,99.90
2018-04-08T01:16:45.006Z,99.90
2018-04-08T01:19:12.479Z,99.90
2018-04-08T01:21:39.939Z,99.90
2018-04-08T01:24:07.426Z,99.90
2018-04-08T01:26:34.928Z,99.90
2018-04-08T01:29:02.393Z,99.90
2018-04-08T01:31:30.628Z,99.90
2018-04-08T01:33:58.096Z,99.90
2018-04-08T01:36:25.568Z,99.90
2018-04-08T01:38:53.041Z,99.90
2018-04-08T01:41:20.522Z,99.90
2018-04-08T01:43:47.985Z,99.90
2018-04-08T01:46:15.448Z,99.90
2018-04-08T01:48:43.701Z,99.90
2018-04-08T01:51:11.168Z,99.90
2018-04-08T01:53:38.640Z,99.90
2018-04-08T01:56:06.134Z,99.90
2018-04-08T01:58:33.624Z,99.90
2018-04-08T02:01:01.191Z,99.90
2018-04-08T02:03:28.668Z,99.90
2018-04-08T02:05:56.244Z,99.90
2018-04-08T02:08:23.710Z,99.90
2018-04-08T02:10:51.176Z,99.90
2018-04-08T02:13:18.664Z,99.90
2018-04-08T02:15:46.129Z,99.90
2018-04-08T02:18:13.595Z,99.90
2018-04-08T02:20:41.156Z,99.90
2018-04-08T02:23:08.623Z,99.90
2018-04-08T02:25:36.095Z,99.90
2018-04-08T02:28:03.560Z,99.90
2018-04-08T02:30:31.480Z,99.90
2018-04-08T02:33:00.671Z,99.90
2018-04-08T02:35:28.129Z,99.90
2018-04-08T02:37:55.601Z,99.90
2018-04-08T02:40:23.073Z,99.90
2018-04-08T02:42:50.540Z,99.90
2018-04-08T02:45:18.005Z,99.90
2018-04-08T02:47:45.472Z,99.90
2018-04-08T02:50:13.041Z,99.90
2018-04-08T02:52:40.509Z,99.90
2018-04-08T02:55:08.745Z,99.90
2018-04-08T02:57:36.216Z,99.90
2018-04-08T03:00:03.686Z,99.90
2018-04-08T03:02:31.937Z,99.90
2018-04-08T03:04:59.419Z,99.90
2018-04-08T03:07:27.689Z,99.90
2018-04-08T03:09:55.152Z,99.90
2018-04-08T03:12:22.632Z,99.90
2018-04-08T03:14:50.198Z,99.90
2018-04-08T03:17:17.689Z,99.90
2018-04-08T03:19:45.156Z,99.90
2018-04-08T03:22:12.624Z,99.90
2018-04-08T03:24:40.180Z,99.90
2018-04-08T03:27:07.644Z,99.90
2018-04-08T03:29:35.119Z,99.90
2018-04-08T03:32:02.594Z,99.90
2018-04-08T03:34:30.156Z,99.90
2018-04-08T03:36:57.620Z,99.90
2018-04-08T03:39:25.086Z,99.90
2018-04-08T03:41:52.548Z,99.90
2018-04-08T03:44:20.012Z,99.90
2018-04-08T03:46:47.603Z,99.90
2018-04-08T03:49:15.060Z,99.90
2018-04-08T03:51:43.292Z,99.90
2018-04-08T03:54:11.530Z,99.90
2018-04-08T03:56:38.983Z,99.90
2018-04-08T03:59:06.461Z,99.90
2018-04-08T04:01:33.937Z,99.90
2018-04-08T04:04:01.413Z,99.90
2018-04-08T04:06:28.876Z,99.90
2018-04-08T04:08:56.347Z,99.90
2018-04-08T04:11:24.587Z,99.90
2018-04-08T04:13:52.812Z,99.90
2018-04-08T04:16:20.285Z,99.90
2018-04-08T04:18:59.732Z,99.90
2018-04-08T04:24:41.668Z,99.90
2018-04-08T04:27:09.126Z,99.90
2018-04-08T04:29:37.352Z,99.90
2018-04-08T04:32:04.856Z,99.90
2018-04-08T04:34:32.340Z,99.90
2018-04-08T04:37:00.563Z,99.90
2018-04-08T04:39:28.020Z,99.90
2018-04-08T04:41:55.528Z,99.90
2018-04-08T04:44:22.998Z,99.90
2018-04-08T04:46:50.567Z,99.90
2018-04-08T04:49:18.040Z,99.90
2018-04-08T04:51:45.501Z,99.90
2018-04-08T04:54:12.971Z,99.90
2018-04-08T04:56:40.428Z,99.90
2018-04-08T04:59:07.915Z,99.90
2018-04-08T05:01:35.373Z,99.90
2018-04-08T05:04:02.842Z,99.90
2018-04-08T05:06:30.308Z,99.90
2018-04-08T05:08:57.775Z,99.90
2018-04-08T05:11:25.244Z,99.90
2018-04-08T05:13:52.722Z,99.90
2018-04-08T05:16:20.175Z,99.90
2018-04-08T05:18:47.645Z,99.90
2018-04-08T05:21:15.108Z,99.90
2018-04-08T05:23:42.576Z,99.90
2018-04-08T05:26:10.048Z,99.90
2018-04-08T05:28:37.512Z,99.90
2018-04-08T05:31:04.985Z,99.90
2018-04-08T05:33:32.456Z,99.90
2018-04-08T05:36:00.322Z,99.90
2018-04-08T05:38:28.540Z,99.90
2018-04-08T05:40:56.044Z,99.90
2018-04-08T05:43:23.479Z,99.90
2018-04-08T05:45:50.954Z,99.90
2018-04-08T05:48:18.416Z,99.90
2018-04-08T05:50:45.884Z,99.90
2018-04-08T05:53:13.348Z,99.90
2018-04-08T05:55:40.803Z,99.90
2018-04-08T05:58:08.317Z,99.90
2018-04-08T06:00:35.744Z,99.90
2018-04-08T06:03:03.208Z,99.90
2018-04-08T06:05:30.668Z,99.90
2018-04-08T06:07:58.909Z,99.90
2018-04-08T06:10:26.362Z,99.90
2018-04-08T06:12:53.812Z,99.90
2018-04-08T06:15:21.275Z,99.90
2018-04-08T06:17:48.735Z,99.90
2018-04-08T06:20:16.201Z,99.90
2018-04-08T06:22:44.424Z,99.90
2018-04-08T06:25:11.892Z,99.90
2018-04-08T06:27:39.356Z,99.90
2018-04-08T06:30:06.824Z,99.90
2018-04-08T06:32:34.276Z,99.90
2018-04-08T06:35:01.741Z,99.90
2018-04-08T06:37:29.197Z,99.90
2018-04-08T06:39:57.448Z,99.90
2018-04-08T06:42:24.904Z,99.90
2018-04-08T06:44:52.364Z,99.90
2018-04-08T06:47:19.823Z,99.90
2018-04-08T06:49:47.281Z,99.90
2018-04-08T06:52:14.751Z,99.90
2018-04-08T06:54:42.222Z,99.90
2018-04-08T06:57:09.677Z,99.90
2018-04-08T06:59:37.909Z,99.90
2018-04-08T07:02:05.398Z,99.90
2018-04-08T07:04:32.868Z,99.90
2018-04-08T07:07:00.336Z,99.90
2018-04-08T07:09:27.799Z,99.90
2018-04-08T07:11:55.265Z,99.90
2018-04-08T07:14:22.729Z,99.90
2018-04-08T07:16:50.187Z,99.90
2018-04-08T07:19:17.640Z,99.90
2018-04-08T07:21:45.107Z,99.90
2018-04-08T07:24:12.558Z,99.90
2018-04-08T07:26:40.776Z,99.90
2018-04-08T07:29:08.239Z,99.90
2018-04-08T07:31:35.696Z,99.90
2018-04-08T07:34:03.172Z,99.90
2018-04-08T07:36:30.640Z,99.90
2018-04-08T07:38:58.100Z,99.90
2018-04-08T07:41:25.568Z,99.90
2018-04-08T07:43:53.016Z,99.90
2018-04-08T07:46:21.240Z,99.90
2018-04-08T07:48:48.805Z,99.90
2018-04-08T07:51:16.255Z,99.90
2018-04-08T07:53:44.479Z,99.90
2018-04-08T07:56:11.947Z,99.90
2018-04-08T07:58:39.403Z,99.90
2018-04-08T08:01:06.866Z,99.90
2018-04-08T08:03:34.325Z,99.90
2018-04-08T08:06:02.556Z,99.90
2018-04-08T08:08:30.023Z,99.90
2018-04-08T08:10:57.481Z,99.90
2018-04-08T08:13:24.934Z,99.90
2018-04-08T08:15:52.397Z,99.90
2018-04-08T08:18:19.907Z,99.90
2018-04-08T08:20:47.329Z,99.90
2018-04-08T08:23:15.557Z,99.90
2018-04-08T08:25:43.039Z,99.90
2018-04-08T08:28:10.608Z,99.70
2018-04-08T08:30:38.059Z,99.70
2018-04-08T08:33:05.524Z,99.90
2018-04-08T08:35:32.993Z,98.90
2018-04-08T08:38:00.456Z,99.00
2018-04-08T08:40:27.967Z,98.30
2018-04-08T08:42:55.428Z,98.60
2018-04-08T08:45:22.892Z,98.90
2018-04-08T08:47:50.350Z,98.80
2018-04-08T08:50:17.820Z,96.20
2018-04-08T08:52:45.276Z,95.50
2018-04-08T08:55:12.736Z,95.80
2018-04-08T08:57:40.244Z,95.80
2018-04-08T09:00:07.701Z,94.40
2018-04-08T09:02:35.167Z,94.20
2018-04-08T09:05:02.626Z,94.10
2018-04-08T09:07:30.103Z,94.80
2018-04-08T09:09:57.561Z,94.00
2018-04-08T09:12:25.020Z,93.10
2018-04-08T09:14:52.487Z,92.80
2018-04-08T09:17:20.050Z,91.80
2018-04-08T09:19:53.264Z,91.50
2018-04-08T09:22:20.735Z,91.50
2018-04-08T09:25:03.080Z,90.20
2018-04-08T09:27:30.532Z,86.90
2018-04-08T09:29:58.004Z,87.80
2018-04-08T09:32:25.467Z,85.20
2018-04-08T09:34:52.921Z,85.70
2018-04-08T09:37:21.164Z,83.00
2018-04-08T09:39:48.620Z,82.90
2018-04-08T09:42:16.104Z,81.30
2018-04-08T09:44:43.668Z,81.10
2018-04-08T09:47:11.130Z,82.50
2018-04-08T09:49:38.607Z,82.80
2018-04-08T09:52:06.084Z,81.80
2018-04-08T09:54:33.548Z,80.40
2018-04-08T09:57:01.021Z,80.70
2018-04-08T09:59:28.475Z,80.50
2018-04-08T10:02:12.386Z,81.50
2018-04-08T10:04:40.641Z,80.30
2018-04-08T10:07:08.200Z,80.20
2018-04-08T10:09:35.674Z,77.90
2018-04-08T10:12:03.170Z,77.50
2018-04-08T10:14:30.608Z,77.10
2018-04-08T10:16:58.074Z,76.60
2018-04-08T10:19:25.573Z,75.10
2018-04-08T10:21:53.009Z,73.00
2018-04-08T10:24:20.465Z,74.50
2018-04-08T10:26:47.932Z,76.10
2018-04-08T10:29:15.496Z,74.10
2018-04-08T10:31:42.848Z,73.80
2018-04-08T10:34:10.320Z,67.90
2018-04-08T10:36:37.789Z,68.40
2018-04-08T10:39:05.275Z,68.00
2018-04-08T10:41:32.752Z,66.60
2018-04-08T10:44:00.207Z,66.60
2018-04-08T10:46:27.676Z,67.70
2018-04-08T10:48:55.147Z,67.00
2018-04-08T10:51:22.611Z,63.90
2018-04-08T10:53:50.083Z,63.20
2018-04-08T10:56:17.540Z,66.00
2018-04-08T10:58:45.768Z,61.10
2018-04-08T11:01:13.237Z,61.10
2018-04-08T11:03:40.695Z,59.80
2018-04-08T11:06:08.149Z,58.20
2018-04-08T11:08:35.616Z,57.00
2018-04-08T11:11:03.071Z,56.20
2018-04-08T11:13:31.313Z,54.40
2018-04-08T11:15:58.765Z,54.40
2018-04-08T11:18:26.249Z,55.00
2018-04-08T11:20:53.708Z,53.20
2018-04-08T11:23:21.163Z,53.10
2018-04-08T11:25:48.635Z,52.40
2018-04-08T11:28:16.093Z,51.60
2018-04-08T11:30:43.560Z,50.70
2018-04-08T11:33:11.024Z,49.00
2018-04-08T11:35:38.484Z,47.20
2018-04-08T11:38:06.714Z,43.60
2018-04-08T11:40:34.164Z,43.60
2018-04-08T11:43:01.628Z,42.30
2018-04-08T11:45:29.108Z,43.30
2018-04-08T11:47:56.565Z,41.80
2018-04-08T11:50:24.024Z,41.30
2018-04-08T11:52:51.490Z,40.70
2018-04-08T11:55:19.715Z,39.70
2018-04-08T11:57:47.189Z,39.70
2018-04-08T12:00:14.644Z,39.40
2018-04-08T12:02:42.109Z,38.40
2018-04-08T12:05:09.566Z,38.40
2018-04-08T12:07:37.030Z,37.20
2018-04-08T12:10:04.497Z,37.50
2018-04-08T12:12:31.964Z,35.50
2018-04-08T12:15:00.208Z,35.00
2018-04-08T12:17:27.674Z,34.90
2018-04-08T12:19:55.136Z,34.10
2018-04-08T12:22:22.592Z,33.10
2018-04-08T12:24:50.051Z,30.10
2018-04-08T12:27:17.508Z,29.10
2018-04-08T12:29:44.981Z,29.40
2018-04-08T12:32:12.435Z,30.60
2018-04-08T12:34:40.652Z,28.50
2018-04-08T12:37:08.125Z,28.50
2018-04-08T12:39:35.584Z,27.50
2018-04-08T12:42:03.037Z,27.60
2018-04-08T12:44:30.502Z,27.10
2018-04-08T12:46:58.719Z,27.30
2018-04-08T12:49:26.184Z,27.30
2018-04-08T12:51:53.663Z,27.80
2018-04-08T12:54:21.121Z,28.60
2018-04-08T12:56:48.572Z,28.80
2018-04-08T12:59:16.034Z,29.30
2018-04-08T13:01:44.272Z,29.20
2018-04-08T13:04:11.735Z,29.10
2018-04-08T13:06:39.203Z,29.40
2018-04-08T13:09:06.668Z,28.70
2018-04-08T13:11:34.120Z,29.00
2018-04-08T13:14:01.580Z,27.50
2018-04-08T13:16:29.045Z,27.60
2018-04-08T13:18:56.513Z,27.00
2018-04-08T13:21:23.964Z,27.00
2018-04-08T13:23:52.193Z,26.70
2018-04-08T13:26:19.645Z,26.70
2018-04-08T13:28:47.103Z,26.80
2018-04-08T13:31:15.324Z,27.00
2018-04-08T13:33:42.781Z,27.00
2018-04-08T13:36:10.240Z,27.20
2018-04-08T13:38:37.705Z,26.00
2018-04-08T13:41:05.197Z,25.80
2018-04-08T13:43:32.652Z,26.40
2018-04-08T13:46:00.102Z,26.00
2018-04-08T13:48:28.328Z,25.70
2018-04-08T13:50:55.784Z,25.80
2018-04-08T13:53:23.250Z,25.90
2018-04-08T13:55:50.704Z,25.90
2018-04-08T13:58:18.160Z,26.60
2018-04-08T14:00:46.376Z,25.80
2018-04-08T14:03:13.852Z,25.80
2018-04-08T14:05:41.304Z,25.70
2018-04-08T14:08:08.766Z,25.10
2018-04-08T14:10:36.990Z,25.50
2018-04-08T14:13:04.440Z,25.50
2018-04-08T14:15:31.895Z,24.70
2018-04-08T14:17:59.779Z,24.60
2018-04-08T14:20:27.225Z,24.30
2018-04-08T14:22:55.447Z,24.20
2018-04-08T14:25:22.916Z,24.10
2018-04-08T14:27:50.372Z,24.00
2018-04-08T14:30:17.863Z,24.10
2018-04-08T14:32:45.316Z,23.70
2018-04-08T14:35:12.781Z,23.60
2018-04-08T14:37:40.244Z,23.30
2018-04-08T14:40:07.705Z,23.40
2018-04-08T14:42:35.936Z,23.40
2018-04-08T14:45:03.386Z,23.40
2018-04-08T14:47:30.899Z,23.30
2018-04-08T14:49:58.326Z,22.70
2018-04-08T14:52:25.792Z,22.40
2018-04-08T14:54:53.268Z,23.00
2018-04-08T14:57:20.727Z,22.60
2018-04-08T14:59:48.183Z,23.10
2018-04-08T15:02:16.428Z,21.90
2018-04-08T15:04:43.886Z,21.90
2018-04-08T15:07:11.338Z,22.10
2018-04-08T15:09:38.798Z,21.80
2018-04-08T15:12:06.303Z,22.10
2018-04-08T15:14:33.759Z,21.60
2018-04-08T15:17:01.210Z,22.10
2018-04-08T15:19:28.673Z,22.70
2018-04-08T15:21:56.165Z,22.80
2018-04-08T15:24:23.620Z,22.80
2018-04-08T15:26:51.076Z,23.00
2018-04-08T15:29:18.541Z,22.50
2018-04-08T15:31:45.999Z,22.50
2018-04-08T15:34:14.240Z,22.40
2018-04-08T15:36:41.696Z,22.40
2018-04-08T15:39:09.152Z,22.50
2018-04-08T15:41:36.614Z,22.20
2018-04-08T15:44:04.068Z,22.30
2018-04-08T15:46:32.300Z,22.10
2018-04-08T15:48:59.755Z,22.00
2018-04-08T15:51:27.243Z,21.90
2018-04-08T15:53:54.692Z,22.40
2018-04-08T15:56:22.144Z,21.90
2018-04-08T15:58:49.663Z,22.40
2018-04-08T16:01:17.117Z,22.20
2018-04-08T16:03:44.580Z,21.90
2018-04-08T16:06:12.042Z,21.70
2018-04-08T16:08:39.496Z,22.10
2018-04-08T16:11:06.965Z,21.80
2018-04-08T16:13:34.427Z,21.70
2018-04-08T16:16:01.892Z,22.20
2018-04-08T16:18:30.110Z,22.00
2018-04-08T16:20:57.587Z,22.00
2018-04-08T16:23:25.067Z,22.10
2018-04-08T16:25:52.525Z,22.20
2018-04-08T16:28:20.057Z,22.20
2018-04-08T16:30:48.273Z,22.00
2018-04-08T16:33:15.732Z,22.00
2018-04-08T16:35:43.196Z,22.50
2018-04-08T16:38:10.656Z,22.90
2018-04-08T16:40:38.119Z,23.20
2018-04-08T16:43:06.352Z,23.40
2018-04-08T16:45:33.803Z,23.40
2018-04-08T16:48:01.264Z,23.60
2018-04-08T16:50:28.729Z,23.80
2018-04-08T16:52:56.192Z,24.10
2018-04-08T16:55:23.673Z,25.30
2018-04-08T16:57:51.133Z,24.30
2018-04-08T17:00:18.597Z,25.40
2018-04-08T17:02:46.094Z,25.50
2018-04-08T17:05:13.548Z,27.60
2018-04-08T17:07:41.006Z,27.60
2018-04-08T17:10:08.468Z,27.90
2018-04-08T17:12:36.695Z,27.60
2018-04-08T17:15:04.147Z,27.50
2018-04-08T17:17:31.625Z,27.50
2018-04-08T17:19:59.144Z,29.40
2018-04-08T17:22:26.551Z,30.10
2018-04-08T17:24:54.059Z,30.10
2018-04-08T17:27:21.512Z,30.30
2018-04-08T17:29:48.968Z,30.50
2018-04-08T17:32:16.425Z,32.20
2018-04-08T17:34:43.879Z,32.80
2018-04-08T17:37:12.107Z,33.60
2018-04-08T17:39:39.564Z,33.70
2018-04-08T17:42:07.025Z,34.00
2018-04-08T17:44:34.484Z,34.10
2018-04-08T17:47:01.991Z,34.00
2018-04-08T17:49:29.405Z,34.90
2018-04-08T17:51:57.628Z,35.70
2018-04-08T17:54:25.082Z,35.70
2018-04-08T17:56:52.551Z,37.20
2018-04-08T17:59:20.012Z,37.90
2018-04-08T18:01:47.469Z,38.50
2018-04-08T18:04:15.697Z,39.80
2018-04-08T18:06:43.143Z,39.80
2018-04-08T18:09:10.655Z,40.30
2018-04-08T18:11:38.232Z,40.60
2018-04-08T18:14:05.732Z,40.50
2018-04-08T18:16:33.949Z,40.80
2018-04-08T18:19:01.406Z,40.70
2018-04-08T18:21:28.865Z,41.10
2018-04-08T18:23:57.091Z,41.90
2018-04-08T18:26:24.576Z,41.90
2018-04-08T18:28:52.050Z,41.90
2018-04-08T18:31:19.499Z,41.40
2018-04-08T18:33:46.961Z,41.60
2018-04-08T18:36:14.424Z,42.40
2018-04-08T18:38:41.882Z,43.50
2018-04-08T18:41:09.400Z,44.00
2018-04-08T18:43:36.919Z,43.90
2018-04-08T18:46:05.141Z,44.30
2018-04-08T18:48:32.620Z,44.80
2018-04-08T18:51:00.076Z,44.80
2018-04-08T18:53:27.537Z,44.40
2018-04-08T18:55:55.019Z,45.50
2018-04-08T18:58:22.477Z,45.60
2018-04-08T19:00:49.933Z,45.20
2018-04-08T19:03:17.402Z,45.80
2018-04-08T19:05:44.862Z,45.10
2018-04-08T19:08:13.115Z,45.80
2018-04-08T19:10:40.549Z,45.80
2018-04-08T19:13:07.999Z,45.70
2018-04-08T19:15:35.471Z,45.90
2018-04-08T19:18:02.928Z,45.80
2018-04-08T19:20:31.743Z,46.90
2018-04-08T19:22:59.211Z,46.80
2018-04-08T19:25:26.691Z,47.50
2018-04-08T19:27:54.157Z,47.90
2018-04-08T19:30:21.624Z,47.90
2018-04-08T19:32:49.098Z,47.80
2018-04-08T19:35:16.535Z,48.20
2018-04-08T19:37:44.772Z,48.50
2018-04-08T19:40:12.228Z,48.50
2018-04-08T19:42:39.709Z,48.40
2018-04-08T19:45:07.160Z,48.50
2018-04-08T19:47:34.618Z,48.80
2018-04-08T19:50:02.082Z,48.90
2018-04-08T19:52:30.320Z,49.10
2018-04-08T19:54:57.771Z,49.10
2018-04-08T19:57:25.233Z,49.00
2018-04-08T19:59:52.699Z,49.80
2018-04-08T20:02:20.158Z,50.50
2018-04-08T20:04:47.611Z,50.20
2018-04-08T20:07:15.077Z,50.80
2018-04-08T20:09:43.299Z,50.40
2018-04-08T20:12:10.763Z,50.40
2018-04-08T20:14:38.216Z,50.50
2018-04-08T20:17:05.712Z,50.30
2018-04-08T20:19:33.196Z,51.10
2018-04-08T20:22:00.657Z,50.70
2018-04-08T20:24:28.126Z,51.70
2018-04-08T20:26:55.599Z,51.70
2018-04-08T20:29:23.064Z,51.00
2018-04-08T20:31:50.517Z,51.90
2018-04-08T20:34:17.980Z,52.40
2018-04-08T20:36:45.448Z,52.80
2018-04-08T20:39:12.918Z,52.80
2018-04-08T20:41:40.371Z,52.90
2018-04-08T20:44:07.845Z,51.60
2018-04-08T20:46:36.064Z,52.00
2018-04-08T20:49:03.532Z,52.00
2018-04-08T20:51:30.996Z,51.90
2018-04-08T20:53:58.463Z,53.30
2018-04-08T20:56:25.920Z,52.80
2018-04-08T20:58:53.375Z,53.60
2018-04-08T21:01:20.829Z,53.60
2018-04-08T21:03:49.059Z,53.20
2018-04-08T21:06:16.517Z,53.20
2018-04-08T21:08:44.024Z,53.40
2018-04-08T21:11:11.496Z,52.20
2018-04-08T21:13:38.948Z,53.10
2018-04-08T21:16:06.424Z,53.60
2018-04-08T21:18:33.892Z,53.50
2018-04-08T21:21:01.369Z,53.00
2018-04-08T21:23:28.831Z,53.30
2018-04-08T21:25:56.316Z,53.30
2018-04-08T21:28:23.824Z,52.90
2018-04-08T21:30:52.066Z,52.90
2018-04-08T21:33:19.522Z,53.40
2018-04-08T21:35:47.009Z,54.30
2018-04-08T21:38:14.472Z,55.20
2018-04-08T21:40:42.043Z,55.20
2018-04-08T21:43:09.502Z,55.20
2018-04-08T21:45:36.952Z,56.10
2018-04-08T21:48:04.416Z,56.40
2018-04-08T21:50:31.879Z,57.00
2018-04-08T21:52:59.329Z,57.80
2018-04-08T21:55:27.586Z,58.30
2018-04-08T21:57:55.148Z,58.30
2018-04-08T22:00:22.613Z,57.80
2018-04-08T22:02:50.088Z,57.70
2018-04-08T22:05:17.557Z,57.90
2018-04-08T22:07:45.033Z,58.40
2018-04-08T22:10:12.487Z,59.30
2018-04-08T22:12:40.073Z,59.60
2018-04-08T22:15:07.545Z,60.20
2018-04-08T22:17:34.987Z,59.50
2018-04-08T22:20:02.453Z,58.90
2018-04-08T22:22:29.956Z,60.00
2018-04-08T22:24:57.412Z,60.10
2018-04-08T22:27:24.892Z,61.80
2018-04-08T22:29:53.992Z,63.30
2018-04-08T22:32:21.451Z,63.30
2018-04-08T22:34:48.923Z,64.00
2018-04-08T22:37:16.385Z,64.80
2018-04-08T22:39:43.838Z,64.70
2018-04-08T22:42:11.302Z,65.60
2018-04-08T22:44:38.812Z,67.00
2018-04-08T22:47:06.284Z,69.30
2018-04-08T22:49:33.740Z,70.50
2018-04-08T22:52:01.209Z,71.20
2018-04-08T22:54:28.663Z,72.60
2018-04-08T22:56:56.131Z,74.70
2018-04-08T22:59:23.626Z,75.50
2018-04-08T23:01:51.080Z,77.00
2018-04-08T23:04:18.569Z,78.10
2018-04-08T23:06:46.031Z,79.60
2018-04-08T23:09:13.508Z,81.90
2018-04-08T23:11:40.965Z,84.00
2018-04-08T23:14:08.444Z,85.10
2018-04-08T23:16:35.898Z,86.50
2018-04-08T23:19:03.368Z,88.00
2018-04-08T23:21:30.821Z,89.80
2018-04-08T23:23:58.279Z,90.90
2018-04-08T23:26:25.796Z,91.70
2018-04-08T23:28:53.264Z,92.00
2018-04-08T23:31:20.729Z,93.00
2018-04-08T23:33:48.200Z,93.40
2018-04-08T23:36:15.660Z,94.20
2018-04-08T23:38:43.119Z,95.20
2018-04-08T23:41:10.612Z,95.80
2018-04-08T23:43:38.081Z,96.30
2018-04-08T23:46:05.548Z,97.10
2018-04-08T23:48:33.012Z,97.40
2018-04-08T23:51:00.467Z,97.80
2018-04-08T23:53:27.956Z,98.60
2018-04-08T23:55:55.424Z,99.20
2018-04-08T23:58:22.916Z,99.90
